TimeMST,TemperatureF,Dew PointF,Humidity,Sea Level PressureIn,VisibilityMPH,Wind Direction,Wind SpeedMPH,Gust SpeedMPH,PrecipitationIn,Events,Conditions,WindDirDegrees,DateUTC
12:53 AM,36.0,30.0,79,29.70,10.0,WSW,13.8,-,0.00,,Overcast,250,2013-01-28 07:53:00
1:53 AM,39.0,28.0,65,29.69,10.0,SSW,23.0,28.8,N/A,,Scattered Clouds,200,2013-01-28 08:53:00
2:53 AM,33.1,28.9,85,29.74,3.0,WNW,20.7,33.4,0.00,Snow,Light Snow,290,2013-01-28 09:53:00
3:00 AM,32.0,28.4,87,29.73,2.5,West,16.1,-,0.00,Snow,Light Snow,280,2013-01-28 10:00:00
3:08 AM,32.0,28.4,87,29.73,5.0,West,11.5,-,0.01,Snow,Light Snow,270,2013-01-28 10:08:00
3:40 AM,30.2,26.6,86,29.73,9.0,WSW,8.1,18.4,0.01,Snow,Light Snow,250,2013-01-28 10:40:00
3:46 AM,30.2,26.6,86,29.73,7.0,WSW,10.4,-,0.01,Snow,Light Snow,250,2013-01-28 10:46:00
3:53 AM,30.9,27.0,85,29.75,7.0,West,9.2,-,0.01,Snow,Light Snow,260,2013-01-28 10:53:00
4:02 AM,28.4,26.6,93,29.73,10.0,West,10.4,-,N/A,,Scattered Clouds,280,2013-01-28 11:02:00
4:20 AM,28.4,26.6,93,29.73,10.0,Calm,Calm,-,N/A,,Mostly Cloudy,0,2013-01-28 11:20:00
4:53 AM,28.9,23.0,78,29.75,10.0,NNE,3.5,-,N/A,,Overcast,30,2013-01-28 11:53:00
5:35 AM,28.4,21.2,74,29.71,10.0,NW,3.5,-,N/A,,Overcast,320,2013-01-28 12:35:00
5:51 AM,28.4,23.0,80,29.71,10.0,Calm,Calm,-,N/A,,Overcast,0,2013-01-28 12:51:00
5:53 AM,28.9,23.0,78,29.74,10.0,Calm,Calm,-,N/A,,Overcast,0,2013-01-28 12:53:00
6:04 AM,28.4,21.2,74,29.71,10.0,NE,3.5,-,N/A,,Overcast,40,2013-01-28 13:04:00
6:53 AM,27.0,21.9,81,29.76,2.0,NNW,4.6,-,0.00,Snow,Light Snow,340,2013-01-28 13:53:00
7:00 AM,26.6,21.2,80,29.73,1.5,WNW,4.6,-,0.00,Snow,Light Snow,300,2013-01-28 14:00:00
7:05 AM,26.6,21.2,80,29.73,1.0,Calm,Calm,-,0.00,Snow,Light Snow,0,2013-01-28 14:05:00
7:09 AM,26.6,23.0,86,29.73,0.8,Calm,Calm,-,0.01,Snow,Light Snow,0,2013-01-28 14:09:00
7:28 AM,26.6,24.8,93,29.73,1.2,Calm,Calm,-,0.02,Snow,Light Snow,0,2013-01-28 14:28:00
7:37 AM,26.6,23.0,86,29.72,0.8,Calm,Calm,-,0.03,Snow,Light Snow,0,2013-01-28 14:37:00
7:48 AM,26.6,23.0,86,29.72,0.8,Calm,Calm,-,0.03,Snow,Light Snow,0,2013-01-28 14:48:00
7:53 AM,27.0,23.0,85,29.75,0.8,Calm,Calm,-,0.03,Snow,Light Snow,0,2013-01-28 14:53:00
8:07 AM,26.6,23.0,86,29.73,0.8,Calm,Calm,-,0.01,Snow,Light Snow,0,2013-01-28 15:07:00
8:11 AM,26.6,23.0,86,29.73,0.5,West,6.9,-,0.01,Fog-Snow,Snow,270,2013-01-28 15:11:00
8:49 AM,24.8,21.2,86,29.75,0.5,West,9.2,-,0.02,Fog-Snow,Light Snow,280,2013-01-28 15:49:00
8:53 AM,24.1,21.0,88,29.81,0.5,West,9.2,-,0.02,Fog-Snow,Light Snow,280,2013-01-28 15:53:00
9:16 AM,24.8,21.2,86,29.76,0.2,WSW,8.1,-,0.01,Fog-Snow,Snow,240,2013-01-28 16:16:00
9:24 AM,24.8,19.4,80,29.77,0.2,West,12.7,-,0.01,Fog-Snow,Snow,270,2013-01-28 16:24:00
9:53 AM,24.1,19.0,81,29.83,0.5,West,12.7,-,0.02,Snow,Snow,260,2013-01-28 16:53:00
10:00 AM,23.0,19.4,86,29.78,0.8,West,12.7,-,0.00,Snow,Light Snow,260,2013-01-28 17:00:00
10:08 AM,24.8,19.4,80,29.78,1.0,West,12.7,-,0.00,Snow,Light Snow,260,2013-01-28 17:08:00
10:15 AM,23.0,19.4,86,29.79,0.8,West,15.0,-,0.00,Snow,Light Snow,260,2013-01-28 17:15:00
10:28 AM,23.0,17.6,80,29.79,0.8,WSW,12.7,-,0.00,Snow,Light Snow,250,2013-01-28 17:28:00
10:35 AM,23.0,17.6,80,29.79,1.2,West,15.0,-,0.00,Snow,Light Snow,270,2013-01-28 17:35:00
10:41 AM,23.0,17.6,80,29.78,2.0,West,11.5,-,0.00,Snow,Light Snow,260,2013-01-28 17:41:00
10:53 AM,23.0,18.0,81,29.86,1.5,West,11.5,-,0.00,Snow,Light Snow,260,2013-01-28 17:53:00
11:12 AM,23.0,17.6,80,29.79,2.0,WSW,11.5,-,0.00,Snow,Light Snow,240,2013-01-28 18:12:00
11:21 AM,23.0,17.6,80,29.78,6.0,WSW,11.5,-,0.00,Snow,Light Snow,240,2013-01-28 18:21:00
11:37 AM,23.0,17.6,80,29.79,2.0,WSW,15.0,-,0.00,Snow,Light Snow,240,2013-01-28 18:37:00
11:45 AM,23.0,17.6,80,29.79,1.5,WSW,13.8,-,0.00,Snow,Light Snow,250,2013-01-28 18:45:00
11:53 AM,23.0,18.0,81,29.85,1.0,WSW,12.7,-,0.00,Snow,Light Snow,250,2013-01-28 18:53:00
11:57 AM,23.0,17.6,80,29.79,0.8,WSW,15.0,-,0.00,Snow,Light Snow,240,2013-01-28 18:57:00
12:28 PM,23.0,17.6,80,29.78,0.5,WSW,13.8,-,0.00,Snow,Snow,250,2013-01-28 19:28:00
12:42 PM,21.2,17.6,86,29.77,1.0,West,12.7,-,0.00,Snow,Light Snow,260,2013-01-28 19:42:00
12:53 PM,21.9,18.0,85,29.84,0.8,WSW,11.5,-,0.00,Snow,Light Snow,250,2013-01-28 19:53:00
1:05 PM,21.2,17.6,86,29.77,0.5,WSW,11.5,-,0.00,Fog-Snow,Light Snow,250,2013-01-28 20:05:00
1:29 PM,21.2,17.6,86,29.77,0.8,WSW,13.8,-,0.00,Snow,Light Snow,250,2013-01-28 20:29:00
1:46 PM,21.2,17.6,86,29.77,1.0,WSW,12.7,-,0.00,Snow,Light Snow,250,2013-01-28 20:46:00
1:53 PM,21.9,18.0,85,29.82,1.0,West,10.4,-,0.00,Snow,Light Snow,260,2013-01-28 20:53:00
2:05 PM,21.2,17.6,86,29.77,0.8,West,11.5,-,0.00,Snow,Light Snow,260,2013-01-28 21:05:00
2:14 PM,21.2,17.6,86,29.77,1.0,West,9.2,-,0.00,Snow,Light Snow,260,2013-01-28 21:14:00
2:32 PM,21.2,17.6,86,29.78,0.8,West,12.7,-,0.00,Snow,Light Snow,270,2013-01-28 21:32:00
2:47 PM,21.2,17.6,86,29.79,1.2,West,10.4,-,0.00,Snow,Light Snow,280,2013-01-28 21:47:00
2:53 PM,21.9,16.0,78,29.87,2.0,West,10.4,-,0.00,Snow,Light Snow,280,2013-01-28 21:53:00
3:02 PM,21.2,15.8,80,29.77,4.0,WNW,11.5,-,0.00,Snow,Light Snow,290,2013-01-28 22:02:00
3:13 PM,21.2,15.8,80,29.79,1.5,WNW,12.7,-,0.00,Snow,Light Snow,290,2013-01-28 22:13:00
3:15 PM,21.2,15.8,80,29.79,0.8,WNW,9.2,18.4,0.00,Snow,Light Snow,290,2013-01-28 22:15:00
3:26 PM,21.2,15.8,80,29.79,1.0,WNW,8.1,-,0.00,Snow,Light Snow,290,2013-01-28 22:26:00
3:32 PM,21.2,15.8,80,29.79,2.0,WNW,9.2,-,0.00,Snow,Light Snow,290,2013-01-28 22:32:00
3:41 PM,21.2,15.8,80,29.79,7.0,WNW,11.5,-,0.00,Snow,Light Snow,300,2013-01-28 22:41:00
3:49 PM,21.2,14.0,74,29.80,5.0,WNW,10.4,-,0.00,Snow,Light Snow,290,2013-01-28 22:49:00
3:53 PM,21.9,14.0,72,29.89,5.0,WNW,11.5,-,0.00,Snow,Light Snow,300,2013-01-28 22:53:00
4:20 PM,21.2,14.0,74,29.79,1.8,WNW,9.2,-,N/A,Snow,Light Snow,300,2013-01-28 23:20:00
4:29 PM,21.2,15.8,80,29.80,3.0,NW,6.9,-,0.00,Snow,Light Snow,310,2013-01-28 23:29:00
4:36 PM,21.2,15.8,80,29.80,7.0,WNW,4.6,-,0.00,,Overcast,290,2013-01-28 23:36:00
4:53 PM,21.0,14.0,74,29.92,5.0,West,9.2,-,0.00,Snow,Light Snow,280,2013-01-28 23:53:00
5:53 PM,19.9,12.9,74,29.93,10.0,West,5.8,-,0.00,,Overcast,260,2013-01-29 00:53:00
6:53 PM,18.0,12.9,81,29.96,6.0,WSW,6.9,-,0.00,Snow,Light Snow,240,2013-01-29 01:53:00
7:53 PM,17.1,12.0,81,29.97,10.0,SSW,5.8,-,0.00,,Overcast,210,2013-01-29 02:53:00
8:53 PM,17.1,12.9,84,29.98,10.0,Calm,Calm,-,N/A,,Overcast,0,2013-01-29 03:53:00
9:53 PM,17.1,12.9,84,29.99,10.0,West,4.6,-,N/A,,Overcast,270,2013-01-29 04:53:00
10:53 PM,17.1,10.0,74,29.99,10.0,WSW,5.8,-,N/A,,Overcast,240,2013-01-29 05:53:00
11:53 PM,15.1,7.0,70,30.00,10.0,West,3.5,-,N/A,,Overcast,270,2013-01-29 06:53:00